createdAt,value
2018-11-14T00:00:42.663Z,7.20
2018-11-14T00:03:12.241Z,7.20
2018-11-14T00:05:41.860Z,7.20
2018-11-14T00:08:12.097Z,7.10
2018-11-14T00:10:42.319Z,7.10
2018-11-14T00:13:11.908Z,7.10
2018-11-14T00:15:41.750Z,7.10
2018-11-14T00:18:11.379Z,7.10
2018-11-14T00:20:41.040Z,7.00
2018-11-14T00:23:10.645Z,7.00
2018-11-14T00:25:40.168Z,7.00
2018-11-14T00:28:09.756Z,7.00
2018-11-14T00:30:39.238Z,7.00
2018-11-14T00:33:08.792Z,6.90
2018-11-14T00:35:38.324Z,6.90
2018-11-14T00:38:08.033Z,6.90
2018-11-14T00:40:37.893Z,6.90
2018-11-14T00:43:07.612Z,6.90
2018-11-14T00:45:37.213Z,6.90
2018-11-14T00:48:07.096Z,6.80
2018-11-14T00:50:36.660Z,6.80
2018-11-14T00:53:06.349Z,6.80
2018-11-14T00:55:35.887Z,6.80
2018-11-14T00:58:05.796Z,6.80
2018-11-14T01:00:35.478Z,6.80
2018-11-14T01:03:05.085Z,6.80
2018-11-14T01:05:34.617Z,6.80
2018-11-14T01:08:04.496Z,6.80
2018-11-14T01:10:34.119Z,6.70
2018-11-14T01:13:03.852Z,6.80
2018-11-14T01:15:33.542Z,6.70
2018-11-14T01:18:03.605Z,6.60
2018-11-14T01:20:33.262Z,6.70
2018-11-14T01:23:02.876Z,6.70
2018-11-14T01:25:32.565Z,6.60
2018-11-14T01:28:02.365Z,6.60
2018-11-14T01:30:32.899Z,6.60
2018-11-14T01:33:02.848Z,6.60
2018-11-14T01:35:32.409Z,6.60
2018-11-14T01:38:02.134Z,6.60
2018-11-14T01:40:31.763Z,6.60
2018-11-14T01:43:01.446Z,6.50
2018-11-14T01:45:31.076Z,6.50
2018-11-14T01:48:00.848Z,6.50
2018-11-14T01:50:31.331Z,6.50
2018-11-14T01:53:00.882Z,6.50
2018-11-14T01:55:30.534Z,6.40
2018-11-14T01:58:00.605Z,6.40
2018-11-14T02:00:30.261Z,6.50
2018-11-14T02:03:00.006Z,6.40
2018-11-14T02:05:29.817Z,6.40
2018-11-14T02:07:59.603Z,6.40
2018-11-14T02:10:29.148Z,6.40
2018-11-14T02:12:58.801Z,6.40
2018-11-14T02:15:28.633Z,6.40
2018-11-14T02:17:58.240Z,6.40
2018-11-14T02:20:27.822Z,6.40
2018-11-14T02:22:57.448Z,6.40
2018-11-14T02:25:27.061Z,6.40
2018-11-14T02:27:56.768Z,6.40
2018-11-14T02:30:26.378Z,6.30
2018-11-14T02:32:56.416Z,6.30
2018-11-14T02:35:26.051Z,6.30
2018-11-14T02:37:55.612Z,6.30
2018-11-14T02:40:25.246Z,6.30
2018-11-14T02:42:54.828Z,6.20
2018-11-14T02:45:24.319Z,6.20
2018-11-14T02:47:53.930Z,6.20
2018-11-14T02:50:23.428Z,6.20
2018-11-14T02:52:52.932Z,6.20
2018-11-14T02:55:22.584Z,6.10
2018-11-14T02:57:52.842Z,6.20
2018-11-14T03:00:22.855Z,6.10
2018-11-14T03:02:52.598Z,6.10
2018-11-14T03:05:22.283Z,6.10
2018-11-14T03:07:51.926Z,6.10
2018-11-14T03:10:22.172Z,6.10
2018-11-14T03:12:52.372Z,6.10
2018-11-14T03:15:23.132Z,6.00
2018-11-14T03:17:52.710Z,6.00
2018-11-14T03:20:22.858Z,5.90
2018-11-14T03:22:52.319Z,6.00
2018-11-14T03:25:22.565Z,6.00
2018-11-14T03:27:52.197Z,6.00
2018-11-14T03:30:21.884Z,6.00
2018-11-14T03:32:51.498Z,5.90
2018-11-14T03:35:21.106Z,5.90
2018-11-14T03:37:50.798Z,5.90
2018-11-14T03:40:20.426Z,5.90
2018-11-14T03:42:50.114Z,5.90
2018-11-14T03:45:19.738Z,5.90
2018-11-14T03:47:49.469Z,5.90
2018-11-14T03:50:19.046Z,5.90
2018-11-14T03:52:48.713Z,5.90
2018-11-14T03:55:18.353Z,5.90
2018-11-14T03:57:47.990Z,5.90
2018-11-14T04:00:17.771Z,5.90
2018-11-14T04:02:47.922Z,5.90
2018-11-14T04:05:17.774Z,5.90
2018-11-14T04:07:47.244Z,5.90
2018-11-14T04:10:16.828Z,5.90
2018-11-14T04:12:46.551Z,5.90
2018-11-14T04:15:16.629Z,5.90
2018-11-14T04:17:46.354Z,5.90
2018-11-14T04:20:17.257Z,5.80
2018-11-14T04:22:47.448Z,5.80
2018-11-14T04:25:18.701Z,5.80
2018-11-14T04:27:48.909Z,5.70
2018-11-14T04:30:22.682Z,5.70
2018-11-14T04:32:52.316Z,5.70
2018-11-14T04:35:22.367Z,5.70
2018-11-14T04:37:52.066Z,5.70
2018-11-14T04:40:23.245Z,5.70
2018-11-14T04:42:52.915Z,5.70
2018-11-14T04:45:23.648Z,5.70
2018-11-14T04:47:53.344Z,5.70
2018-11-14T04:50:25.643Z,5.70
2018-11-14T04:52:55.659Z,5.70
2018-11-14T04:55:26.174Z,5.70
2018-11-14T04:57:55.777Z,5.80
2018-11-14T05:00:26.313Z,5.80
2018-11-14T05:02:56.136Z,5.90
2018-11-14T05:05:25.860Z,6.00
2018-11-14T05:07:55.536Z,6.00
2018-11-14T05:10:26.616Z,6.10
2018-11-14T05:12:56.337Z,6.20
2018-11-14T05:15:26.517Z,6.30
2018-11-14T05:17:56.353Z,6.40
2018-11-14T05:20:25.941Z,6.40
2018-11-14T05:22:55.647Z,6.40
2018-11-14T05:25:25.194Z,6.50
2018-11-14T05:27:54.865Z,6.60
2018-11-14T05:30:24.797Z,6.70
2018-11-14T05:32:54.360Z,6.80
2018-11-14T05:35:24.374Z,6.90
2018-11-14T05:37:55.160Z,6.90
2018-11-14T05:40:24.639Z,6.90
2018-11-14T05:42:54.197Z,7.00
2018-11-14T05:45:25.682Z,7.00
2018-11-14T05:47:55.454Z,7.10
2018-11-14T05:50:25.331Z,7.20
2018-11-14T05:52:54.844Z,7.20
2018-11-14T05:55:24.701Z,7.30
2018-11-14T05:57:54.258Z,7.40
2018-11-14T06:00:27.751Z,7.50
2018-11-14T06:02:59.109Z,7.50
2018-11-14T06:05:28.921Z,7.60
2018-11-14T06:07:58.904Z,7.70
2018-11-14T06:10:28.521Z,7.70
2018-11-14T06:12:58.253Z,7.70
2018-11-14T06:15:27.999Z,7.70
2018-11-14T06:17:58.792Z,7.80
2018-11-14T06:20:28.406Z,7.80
2018-11-14T06:22:58.123Z,7.80
2018-11-14T06:25:32.652Z,7.80
2018-11-14T06:28:03.377Z,7.80
2018-11-14T06:30:33.713Z,7.70
2018-11-14T06:33:04.234Z,7.70
2018-11-14T06:35:33.738Z,7.70
2018-11-14T06:38:04.000Z,7.70
2018-11-14T06:40:33.789Z,7.60
2018-11-14T06:43:03.579Z,7.70
2018-11-14T06:45:33.704Z,7.70
2018-11-14T06:48:03.924Z,7.80
2018-11-14T06:50:33.619Z,7.80
2018-11-14T06:53:05.445Z,7.90
2018-11-14T06:55:34.920Z,7.90
2018-11-14T06:58:04.568Z,8.00
2018-11-14T07:00:35.230Z,8.00
2018-11-14T07:03:06.238Z,8.00
2018-11-14T07:05:36.109Z,8.00
2018-11-14T07:08:06.123Z,8.00
2018-11-14T07:10:36.854Z,8.00
2018-11-14T07:13:08.264Z,8.00
2018-11-14T07:15:38.325Z,8.00
2018-11-14T07:18:09.446Z,8.00
2018-11-14T07:20:40.594Z,8.10
2018-11-14T07:23:10.287Z,8.20
2018-11-14T07:25:40.040Z,8.20
2018-11-14T07:28:09.802Z,8.20
2018-11-14T07:30:39.420Z,7.70
2018-11-14T07:33:10.290Z,7.60
2018-11-14T07:35:39.910Z,7.70
2018-11-14T07:38:44.317Z,7.80
2018-11-14T07:41:19.249Z,8.00
2018-11-14T07:43:48.913Z,8.20
2018-11-14T07:46:18.671Z,8.40
2018-11-14T07:48:49.365Z,8.30
2018-11-14T07:51:18.886Z,8.20
2018-11-14T07:53:48.387Z,8.50
2018-11-14T07:56:18.088Z,8.80
2018-11-14T07:58:47.713Z,8.90
2018-11-14T08:01:17.606Z,9.10
2018-11-14T08:03:47.375Z,9.30
2018-11-14T08:06:17.027Z,9.30
2018-11-14T08:08:47.198Z,9.40
2018-11-14T08:11:16.892Z,9.40
2018-11-14T08:13:47.937Z,9.40
2018-11-14T08:16:17.680Z,9.40
2018-11-14T08:18:47.476Z,9.50
2018-11-14T08:21:16.925Z,9.60
2018-11-14T08:23:47.185Z,9.70
2018-11-14T08:26:16.633Z,9.80
2018-11-14T08:28:46.194Z,9.90
2018-11-14T08:31:15.914Z,10.00
2018-11-14T08:33:45.591Z,10.10
2018-11-14T08:36:15.308Z,10.20
2018-11-14T08:38:45.142Z,10.30
2018-11-14T12:29:52.474Z,10.00
2018-11-14T12:32:22.105Z,12.10
2018-11-14T12:34:51.660Z,12.30
2018-11-14T12:37:21.108Z,12.40
2018-11-14T12:39:50.950Z,12.50
2018-11-14T12:42:20.437Z,12.60
2018-11-14T12:44:50.194Z,12.60
2018-11-14T12:47:19.885Z,12.50
2018-11-14T12:49:49.565Z,12.40
2018-11-14T12:52:19.193Z,12.40
2018-11-14T12:54:48.896Z,12.50
2018-11-14T12:57:18.483Z,12.50
2018-11-14T12:59:48.922Z,12.50
2018-11-14T13:02:18.629Z,12.40
2018-11-14T13:04:48.157Z,12.40
2018-11-14T13:07:17.847Z,12.50
2018-11-14T13:09:47.680Z,12.60
2018-11-14T13:12:17.391Z,12.50
2018-11-14T13:14:46.985Z,12.50
2018-11-14T13:17:16.559Z,12.60
2018-11-14T13:19:46.098Z,12.70
2018-11-14T13:22:16.165Z,12.60
2018-11-14T13:24:45.828Z,12.50
2018-11-14T13:27:15.274Z,12.30
2018-11-14T13:29:44.953Z,12.30
2018-11-14T13:32:14.541Z,12.20
2018-11-14T13:34:44.156Z,12.10
2018-11-14T13:37:13.799Z,12.00
2018-11-14T13:39:43.456Z,11.90
2018-11-14T13:42:13.101Z,11.70
2018-11-14T13:44:42.792Z,11.60
2018-11-14T13:47:12.525Z,11.40
2018-11-14T13:49:42.348Z,11.50
2018-11-14T13:52:11.954Z,11.60
2018-11-14T13:54:41.531Z,11.70
2018-11-14T13:57:11.232Z,11.70
2018-11-14T13:59:40.802Z,11.60
2018-11-14T14:02:10.437Z,11.40
2018-11-14T14:04:40.208Z,11.40
2018-11-14T14:07:09.765Z,11.50
2018-11-14T14:09:39.261Z,11.50
2018-11-14T14:12:08.892Z,11.50
2018-11-14T14:14:38.873Z,11.50
2018-11-14T14:17:08.519Z,11.50
2018-11-14T14:19:38.228Z,11.60
2018-11-14T14:22:07.979Z,11.60
2018-11-14T14:24:37.617Z,11.70
2018-11-14T14:27:07.510Z,11.70
2018-11-14T14:29:37.242Z,11.80
2018-11-14T14:32:07.081Z,11.80
2018-11-14T14:34:36.678Z,11.80
2018-11-14T14:37:06.504Z,11.80
2018-11-14T14:39:36.102Z,11.70
2018-11-14T14:42:06.230Z,11.70
2018-11-14T14:44:36.658Z,11.70
2018-11-14T14:47:06.777Z,11.70
2018-11-14T14:49:36.681Z,11.60
2018-11-14T14:52:06.435Z,11.50
2018-11-14T14:54:36.093Z,11.50
2018-11-14T14:57:06.028Z,11.50
2018-11-14T14:59:35.737Z,11.30
2018-11-14T15:02:05.948Z,11.30
2018-11-14T15:04:35.673Z,11.10
2018-11-14T15:07:05.839Z,11.10
2018-11-14T15:09:35.497Z,11.10
2018-11-14T15:12:05.527Z,11.00
2018-11-14T15:14:35.216Z,10.90
2018-11-14T15:17:05.153Z,10.90
2018-11-14T15:19:34.859Z,10.90
2018-11-14T15:22:05.590Z,10.80
2018-11-14T15:24:35.028Z,10.90
2018-11-14T15:27:04.623Z,10.90
2018-11-14T15:29:34.148Z,10.90
2018-11-14T15:32:03.717Z,10.90
2018-11-14T15:34:33.321Z,10.80
2018-11-14T15:37:03.021Z,10.80
2018-11-14T15:39:32.745Z,10.90
2018-11-14T15:42:02.280Z,10.90
2018-11-14T15:44:31.887Z,10.80
2018-11-14T15:47:01.578Z,10.90
2018-11-14T15:49:31.254Z,10.90
2018-11-14T15:52:00.881Z,10.90
2018-11-14T15:54:30.509Z,10.90
2018-11-14T15:57:00.169Z,10.90
2018-11-14T15:59:29.910Z,10.90
2018-11-14T16:01:59.569Z,10.90
2018-11-14T16:04:29.229Z,10.90
2018-11-14T16:06:58.914Z,10.90
2018-11-14T16:09:28.644Z,10.90
2018-11-14T16:11:58.277Z,10.90
2018-11-14T16:14:28.063Z,10.80
2018-11-14T16:16:57.792Z,10.80
2018-11-14T16:19:27.499Z,10.70
2018-11-14T16:21:57.241Z,10.70
2018-11-14T16:24:26.923Z,10.60
2018-11-14T16:26:56.488Z,10.50
2018-11-14T16:29:26.105Z,10.40
2018-11-14T16:31:55.610Z,10.20
2018-11-14T16:34:25.220Z,10.10
2018-11-14T16:36:54.917Z,10.00
2018-11-14T16:39:24.662Z,9.90
2018-11-14T16:41:54.304Z,9.80
2018-11-14T16:44:23.948Z,9.80
2018-11-14T16:46:53.454Z,9.70
2018-11-14T16:49:23.937Z,9.60
2018-11-14T16:51:53.625Z,9.40
2018-11-14T16:54:23.232Z,9.30
2018-11-14T16:56:53.004Z,9.20
2018-11-14T16:59:22.586Z,9.10
2018-11-14T17:01:52.249Z,9.10
2018-11-14T17:04:22.281Z,9.00
2018-11-14T17:06:51.964Z,8.90
2018-11-14T17:09:21.672Z,8.80
2018-11-14T17:11:51.597Z,8.80
2018-11-14T17:14:21.223Z,8.80
2018-11-14T17:16:51.006Z,8.80
2018-11-14T17:19:20.659Z,8.70
2018-11-14T17:21:50.235Z,8.70
2018-11-14T17:24:19.934Z,8.70
2018-11-14T17:26:49.484Z,8.70
2018-11-14T17:29:19.117Z,8.80
2018-11-14T17:31:48.682Z,8.80
2018-11-14T17:34:18.372Z,8.90
2018-11-14T17:36:48.098Z,9.00
2018-11-14T17:39:17.801Z,9.00
2018-11-14T17:41:47.553Z,9.10
2018-11-14T17:44:17.095Z,9.20
2018-11-14T17:46:46.729Z,9.30
2018-11-14T17:49:16.334Z,9.30
2018-11-14T17:51:45.931Z,9.30
2018-11-14T17:54:15.502Z,9.40
2018-11-14T17:56:45.040Z,9.60
2018-11-14T17:59:14.695Z,9.70
2018-11-14T18:01:44.311Z,9.70
2018-11-14T18:04:13.865Z,9.70
2018-11-14T18:06:43.424Z,9.60
2018-11-14T18:09:14.968Z,9.50
2018-11-14T18:11:44.609Z,9.50
2018-11-14T18:14:14.390Z,9.40
2018-11-14T18:16:43.915Z,9.40
2018-11-14T18:19:13.585Z,9.30
2018-11-14T18:21:43.288Z,9.20
2018-11-14T18:24:12.882Z,9.10
2018-11-14T18:26:42.586Z,8.90
2018-11-14T18:29:12.934Z,8.90
2018-11-14T18:31:42.523Z,8.80
2018-11-14T18:34:12.050Z,8.80
2018-11-14T18:36:41.786Z,8.70
2018-11-14T18:39:13.736Z,8.70
2018-11-14T18:41:44.252Z,8.70
2018-11-14T18:44:13.943Z,8.60
2018-11-14T18:46:43.573Z,8.50
2018-11-14T18:49:13.177Z,8.50
2018-11-14T18:51:42.931Z,8.30
2018-11-14T18:54:12.538Z,8.30
2018-11-14T18:56:42.114Z,8.20
2018-11-14T18:59:11.749Z,8.20
2018-11-14T19:01:41.322Z,8.20
2018-11-14T19:04:11.030Z,8.20
2018-11-14T19:06:40.691Z,8.30
2018-11-14T19:09:10.758Z,8.40
2018-11-14T19:11:41.281Z,8.50
2018-11-14T19:14:11.135Z,8.60
2018-11-14T19:16:40.985Z,8.60
2018-11-14T19:19:10.922Z,8.60
2018-11-14T19:21:40.706Z,8.70
2018-11-14T19:24:10.496Z,8.60
2018-11-14T19:26:40.170Z,8.70
2018-11-14T19:29:09.766Z,8.70
2018-11-14T19:31:39.473Z,8.70
2018-11-14T19:34:09.094Z,8.80
2018-11-14T19:36:39.329Z,8.80
2018-11-14T19:39:12.555Z,8.80
2018-11-14T19:41:42.657Z,8.90
2018-11-14T19:44:12.757Z,8.90
2018-11-14T19:46:42.260Z,9.00
2018-11-14T19:49:11.999Z,9.00
2018-11-14T19:51:41.582Z,9.00
2018-11-14T19:54:11.289Z,9.00
2018-11-14T19:56:40.896Z,9.10
2018-11-14T19:59:10.921Z,9.00
2018-11-14T20:01:40.713Z,8.90
2018-11-14T20:04:10.563Z,9.00
2018-11-14T20:06:40.472Z,9.10
2018-11-14T20:09:11.478Z,9.10
2018-11-14T20:11:41.311Z,9.10
2018-11-14T20:14:11.041Z,9.20
2018-11-14T20:16:40.628Z,9.30
2018-11-14T20:19:11.192Z,9.40
2018-11-14T20:21:43.957Z,9.40
2018-11-14T20:24:15.358Z,9.40
2018-11-14T20:26:45.510Z,9.50
2018-11-14T20:29:15.209Z,9.50
2018-11-14T20:31:44.778Z,9.40
2018-11-14T20:34:14.398Z,9.40
2018-11-14T20:36:44.025Z,9.40
2018-11-14T20:39:14.000Z,9.40
2018-11-14T20:41:43.770Z,9.50
2018-11-14T20:44:13.514Z,9.50
2018-11-14T20:46:43.313Z,9.60
2018-11-14T20:49:12.967Z,9.60
2018-11-14T20:51:42.513Z,9.50
2018-11-14T20:54:12.402Z,9.60
2018-11-14T20:56:50.389Z,9.50
2018-11-14T20:59:20.125Z,9.50
2018-11-14T21:01:49.683Z,9.50
2018-11-14T21:04:19.532Z,9.50
2018-11-14T21:06:49.305Z,9.60
2018-11-14T21:09:18.987Z,9.50
2018-11-14T21:11:48.714Z,9.60
2018-11-14T21:14:18.495Z,9.60
2018-11-14T21:16:48.217Z,9.60
2018-11-14T21:19:18.417Z,9.60
2018-11-14T21:21:48.039Z,9.60
2018-11-14T21:24:18.012Z,9.60
2018-11-14T21:26:47.660Z,9.50
2018-11-14T21:29:17.374Z,9.30
2018-11-14T21:31:46.850Z,9.30
2018-11-14T21:34:16.488Z,9.40
2018-11-14T21:36:46.075Z,9.40
2018-11-14T21:39:15.811Z,9.40
2018-11-14T21:41:45.497Z,9.50
2018-11-14T21:44:15.073Z,9.50
2018-11-14T21:46:44.882Z,9.50
2018-11-14T21:49:19.450Z,9.50
2018-11-14T21:51:49.165Z,9.40
2018-11-14T21:54:18.733Z,9.30
2018-11-14T21:56:48.405Z,9.10
2018-11-14T21:59:18.208Z,8.90
2018-11-14T22:01:47.895Z,8.90
2018-11-14T22:04:17.589Z,8.80
2018-11-14T22:06:47.233Z,8.90
2018-11-14T22:09:17.518Z,9.00
2018-11-14T22:11:47.042Z,9.00
2018-11-14T22:14:17.098Z,9.10
2018-11-14T22:16:46.762Z,9.20
2018-11-14T22:19:16.275Z,9.20
2018-11-14T22:21:46.101Z,9.20
2018-11-14T22:24:17.056Z,9.20
2018-11-14T22:26:46.715Z,9.10
2018-11-14T22:29:16.543Z,9.10
2018-11-14T22:31:46.052Z,9.00
2018-11-14T22:34:15.746Z,9.00
2018-11-14T22:36:45.331Z,9.10
2018-11-14T22:39:14.948Z,9.20
2018-11-14T22:41:44.611Z,9.30
2018-11-14T22:44:14.173Z,9.40
2018-11-14T22:46:43.790Z,9.40
2018-11-14T22:49:13.340Z,9.40
2018-11-14T22:51:43.015Z,9.40
2018-11-14T22:54:12.609Z,9.40
2018-11-14T22:56:42.185Z,9.30
2018-11-14T22:59:11.848Z,9.30
2018-11-14T23:01:41.414Z,9.30
2018-11-14T23:04:11.070Z,9.30
2018-11-14T23:06:40.640Z,9.30
2018-11-14T23:09:12.582Z,9.30
2018-11-14T23:11:42.355Z,9.20
2018-11-14T23:14:12.079Z,9.10
2018-11-14T23:16:41.758Z,9.00
2018-11-14T23:19:12.018Z,9.00
2018-11-14T23:21:41.708Z,8.90
2018-11-14T23:24:11.407Z,9.00
2018-11-14T23:26:41.692Z,9.10
2018-11-14T23:29:11.926Z,9.20
2018-11-14T23:31:41.973Z,9.20
2018-11-14T23:34:11.543Z,9.20
2018-11-14T23:36:41.049Z,9.20
2018-11-14T23:39:12.985Z,9.20
2018-11-14T23:41:42.439Z,9.00
2018-11-14T23:44:12.006Z,9.00
2018-11-14T23:46:41.940Z,8.90
2018-11-14T23:49:11.705Z,8.90
2018-11-14T23:51:41.362Z,8.90
2018-11-14T23:54:11.097Z,8.90
2018-11-14T23:56:40.680Z,9.00
2018-11-14T23:59:10.184Z,8.90
